createdAt,value
2022-10-19T00:00:09.747Z,9.933110367892976
2022-10-19T00:06:38.167Z,9.94314381270903
2022-10-19T00:13:06.185Z,6.20066889632107
2022-10-19T00:19:34.775Z,11.103678929765886
2022-10-19T00:26:19.592Z,11.324414715719064
2022-10-19T00:32:47.874Z,10.892976588628763
2022-10-19T00:39:16.365Z,9.688963210702342
2022-10-19T00:49:30.785Z,8.073578595317725
2022-10-19T00:55:59.518Z,7.036789297658863
2022-10-19T01:02:28.749Z,5.2274247491638794
2022-10-19T01:08:57.929Z,10.899665551839465
2022-10-19T01:21:45.538Z,7.953177257525083
2022-10-19T01:28:30.940Z,7.782608695652174
2022-10-19T01:35:00.358Z,9.535117056856187
2022-10-19T01:41:29.093Z,12.879598662207357
2022-10-19T01:50:33.406Z,9.19732441471572
2022-10-19T02:00:16.633Z,7.394648829431438
2022-10-19T02:12:24.824Z,9.652173913043478
2022-10-19T02:23:24.393Z,6.966555183946488
2022-10-19T02:29:57.744Z,9.68561872909699
2022-10-19T02:36:25.847Z,10.270903010033445
2022-10-19T02:42:54.751Z,7.6120401337792645
2022-10-19T02:49:24.718Z,5.331103678929765
2022-10-19T02:55:54.679Z,7.648829431438127
2022-10-19T03:12:23.379Z,7.254180602006689
2022-10-19T03:18:52.559Z,6.508361204013378
2022-10-19T03:29:24.933Z,8.909698996655518
2022-10-19T03:35:53.325Z,5.54180602006689
2022-10-19T03:42:21.162Z,6.066889632107023
2022-10-19T03:48:49.357Z,7.287625418060201
2022-10-19T03:55:18.708Z,6.240802675585284
2022-10-19T04:04:35.275Z,6.973244147157191
2022-10-19T04:11:04.530Z,8.387959866220736
2022-10-19T04:17:34.048Z,5.525083612040134
2022-10-19T04:24:17.358Z,8.789297658862877
2022-10-19T04:30:45.148Z,8.40133779264214
2022-10-19T04:37:13.860Z,5.448160535117057
2022-10-19T04:43:43.317Z,6.916387959866221
2022-10-19T04:50:12.954Z,6.043478260869565
2022-10-19T05:01:58.378Z,8.240802675585284
2022-10-19T05:08:26.903Z,6.528428093645485
2022-10-19T05:14:55.649Z,7.287625418060201
2022-10-19T05:21:23.369Z,8.521739130434783
2022-10-19T05:28:05.206Z,5.555183946488294
2022-10-19T05:34:37.880Z,6.722408026755853
2022-10-19T05:41:13.629Z,5.0200668896321075
2022-10-19T05:47:51.184Z,4.976588628762542
2022-10-19T05:54:26.378Z,4.983277591973244
2022-10-19T06:01:14.206Z,5.822742474916388
2022-10-19T06:07:57.220Z,10.511705685618729
2022-10-19T06:14:32.054Z,15.57190635451505
2022-10-19T06:21:23.856Z,6.923076923076923
2022-10-19T06:28:00.371Z,7.749163879598663
2022-10-19T06:34:33.705Z,11.150501672240802
2022-10-19T06:41:09.296Z,7.668896321070235
2022-10-19T06:47:39.564Z,5.40133779264214
2022-10-19T06:54:11.470Z,5.8361204013377925
2022-10-19T07:00:48.594Z,4.65886287625418
2022-10-19T07:16:37.797Z,5.638795986622074
2022-10-19T07:23:33.982Z,4.083612040133779
2022-10-19T07:35:32.922Z,4.8762541806020065
2022-10-19T07:48:03.482Z,4.474916387959866
2022-10-19T07:54:31.283Z,7.053511705685619
2022-10-19T08:02:14.309Z,3.782608695652174
2022-10-19T08:08:42.362Z,4.34113712374582
2022-10-19T08:18:38.806Z,7.063545150501672
2022-10-19T08:29:14.402Z,8.68561872909699
2022-10-19T08:41:28.395Z,5.036789297658863
2022-10-19T08:47:59.419Z,4.438127090301004
2022-10-19T09:01:54.734Z,5.454849498327759
2022-10-19T09:08:22.274Z,7.250836120401337
2022-10-19T09:14:51.035Z,7.321070234113712
2022-10-19T09:21:19.572Z,7.334448160535117
2022-10-19T09:27:58.797Z,12.471571906354516
2022-10-19T09:38:35.568Z,7.351170568561873
2022-10-19T09:45:04.847Z,7.953177257525083
2022-10-19T09:51:32.629Z,7.625418060200669
2022-10-19T09:58:00.971Z,9.364548494983278
2022-10-19T10:04:29.366Z,7.889632107023411
2022-10-19T10:10:57.461Z,5.357859531772576
2022-10-19T10:21:12.560Z,8.046822742474916
2022-10-19T10:27:53.578Z,8.88628762541806
2022-10-19T10:34:28.325Z,6.759197324414716
2022-10-19T10:40:58.657Z,8.792642140468228
2022-10-19T10:47:27.593Z,6.74247491638796
2022-10-19T10:53:55.616Z,6.923076923076923
2022-10-19T11:00:23.489Z,7.68561872909699
2022-10-19T11:06:52.099Z,6.377926421404682
2022-10-19T11:13:19.363Z,7.0
2022-10-19T11:19:48.409Z,7.4280936454849495
2022-10-19T11:26:26.050Z,8.695652173913043
2022-10-19T11:32:53.906Z,10.635451505016722
2022-10-19T11:40:06.918Z,7.946488294314381
2022-10-19T11:46:34.707Z,7.551839464882943
2022-10-19T12:05:40.851Z,7.608695652173913
2022-10-19T12:12:08.860Z,5.010033444816053
2022-10-19T12:21:57.501Z,6.438127090301004
2022-10-19T12:34:26.372Z,13.264214046822742
2022-10-19T12:40:54.232Z,8.123745819397993
2022-10-19T12:53:07.307Z,4.6755852842809364
2022-10-19T12:59:36.029Z,6.026755852842809
2022-10-19T13:06:10.220Z,7.036789297658863
2022-10-19T13:12:46.513Z,5.632107023411371
2022-10-19T13:25:14.019Z,5.040133779264214
2022-10-19T13:31:47.081Z,5.548494983277592
2022-10-19T13:38:22.068Z,5.561872909698996
2022-10-19T13:44:56.699Z,6.662207357859532
2022-10-19T13:51:30.114Z,5.237458193979933
2022-10-19T13:58:00.479Z,7.110367892976589
2022-10-19T14:04:30.153Z,6.969899665551839
2022-10-19T14:11:01.029Z,5.023411371237458
2022-10-19T14:17:29.330Z,5.468227424749164
2022-10-19T14:24:04.852Z,9.719063545150501
2022-10-19T14:36:16.788Z,7.010033444816053
2022-10-19T14:42:45.245Z,5.190635451505017
2022-10-19T14:50:04.808Z,16.672240802675585
2022-10-19T14:56:32.835Z,10.37458193979933
2022-10-19T15:03:01.588Z,6.892976588628763
2022-10-19T15:09:37.587Z,6.073578595317726
2022-10-19T15:16:11.633Z,6.678929765886288
2022-10-19T15:22:39.359Z,5.695652173913044
2022-10-19T15:29:14.389Z,8.357859531772576
2022-10-19T15:35:43.781Z,8.551839464882944
2022-10-19T15:44:52.683Z,10.451505016722408
2022-10-19T15:51:21.868Z,9.812709030100335
2022-10-19T15:57:50.865Z,10.501672240802675
2022-10-19T16:04:20.042Z,15.02675585284281
2022-10-19T16:10:49.155Z,22.54180602006689
2022-10-19T16:21:49.988Z,19.722408026755854
2022-10-19T16:28:19.703Z,18.351170568561873
2022-10-19T16:35:43.454Z,15.849498327759198
2022-10-19T16:42:12.767Z,17.672240802675585
2022-10-19T16:48:39.932Z,21.327759197324415
2022-10-19T17:00:22.519Z,21.02006688963211
2022-10-19T17:09:40.334Z,23.090301003344482
2022-10-19T17:22:39.758Z,25.100334448160535
2022-10-19T17:29:13.112Z,32.24414715719063
2022-10-19T17:35:47.158Z,38.28428093645485
2022-10-19T17:42:22.248Z,44.34448160535117
2022-10-19T17:52:46.683Z,60.836120401337794
2022-10-19T17:59:14.761Z,57.51505016722408
2022-10-19T18:05:45.421Z,60.35451505016722
2022-10-19T18:16:20.326Z,86.19732441471572
2022-10-19T18:22:57.533Z,106.76588628762542
2022-10-19T18:29:33.699Z,97.20735785953177
2022-10-19T18:36:05.131Z,72.84949832775919
2022-10-19T18:45:14.792Z,58.73913043478261
2022-10-19T19:02:22.383Z,81.46822742474916
2022-10-19T19:08:57.906Z,99.85284280936455
2022-10-19T19:22:22.694Z,114.89632107023411
2022-10-19T19:29:16.503Z,72.93311036789298
2022-10-19T19:35:46.489Z,73.07023411371237
2022-10-19T19:42:14.867Z,71.4648829431438
2022-10-19T19:53:04.923Z,66.50167224080268
2022-10-19T19:59:34.777Z,68.41471571906355
2022-10-19T20:09:47.796Z,85.57859531772576
2022-10-19T20:16:17.068Z,48.74581939799331
2022-10-19T20:24:19.725Z,43.68561872909699
2022-10-19T20:30:48.540Z,42.69899665551839
2022-10-19T20:37:18.387Z,55.46488294314381
2022-10-19T20:43:47.758Z,59.02341137123746
2022-10-19T20:50:19.262Z,49.91304347826087
2022-10-19T21:00:57.321Z,48.62876254180602
2022-10-19T21:07:25.093Z,49.903010033444815
2022-10-19T21:13:55.419Z,51.68896321070234
2022-10-19T21:20:23.249Z,40.90969899665552
2022-10-19T21:27:06.790Z,39.05685618729097
2022-10-19T21:33:35.242Z,46.25418060200669
2022-10-19T21:44:36.599Z,37.47826086956522
2022-10-19T21:53:31.313Z,33.89966555183946
2022-10-19T22:05:28.185Z,30.96989966555184
2022-10-19T22:14:38.363Z,28.304347826086957
2022-10-19T22:21:08.762Z,38.45150501672241
2022-10-19T22:41:49.009Z,30.237458193979933
2022-10-19T23:00:00.588Z,23.100334448160535
2022-10-19T23:06:31.816Z,24.889632107023413
2022-10-19T23:13:02.251Z,29.876254180602007
2022-10-19T23:20:06.362Z,26.60200668896321
2022-10-19T23:26:51.966Z,29.54180602006689
2022-10-19T23:33:21.635Z,31.247491638795985
2022-10-19T23:39:50.002Z,27.70903010033445
2022-10-19T23:46:18.896Z,31.712374581939798
2022-10-19T23:59:16.473Z,29.40468227424749
